sensor_id;sensor_type;location;lat;lon;timestamp;P1;durP1;ratioP1;P2;durP2;ratioP2
41685;SDS011;27370;42.764;23.432;2022-09-01T00:01:04;31.80;;;24.55;;
41685;SDS011;27370;42.764;23.432;2022-09-01T00:03:35;30.80;;;24.83;;
41685;SDS011;27370;42.764;23.432;2022-09-01T00:06:01;28.27;;;23.83;;
41685;SDS011;27370;42.764;23.432;2022-09-01T00:08:28;29.13;;;23.23;;
41685;SDS011;27370;42.764;23.432;2022-09-01T00:10:53;27.30;;;22.92;;
41685;SDS011;27370;42.764;23.432;2022-09-01T00:13:19;28.85;;;24.58;;
41685;SDS011;27370;42.764;23.432;2022-09-01T00:15:44;28.67;;;23.92;;
41685;SDS011;27370;42.764;23.432;2022-09-01T00:18:10;32.30;;;24.85;;
41685;SDS011;27370;42.764;23.432;2022-09-01T00:20:36;28.65;;;23.92;;
41685;SDS011;27370;42.764;23.432;2022-09-01T00:23:02;30.00;;;22.77;;
41685;SDS011;27370;42.764;23.432;2022-09-01T00:25:27;29.75;;;22.55;;
41685;SDS011;27370;42.764;23.432;2022-09-01T00:27:53;27.98;;;22.38;;
41685;SDS011;27370;42.764;23.432;2022-09-01T00:30:23;31.63;;;23.27;;
41685;SDS011;27370;42.764;23.432;2022-09-01T00:32:49;29.25;;;23.00;;
41685;SDS011;27370;42.764;23.432;2022-09-01T00:35:15;28.70;;;23.13;;
41685;SDS011;27370;42.764;23.432;2022-09-01T00:37:43;26.75;;;22.92;;
41685;SDS011;27370;42.764;23.432;2022-09-01T00:40:09;29.25;;;23.50;;
41685;SDS011;27370;42.764;23.432;2022-09-01T00:42:37;28.17;;;23.80;;
41685;SDS011;27370;42.764;23.432;2022-09-01T00:45:04;31.02;;;23.98;;
41685;SDS011;27370;42.764;23.432;2022-09-01T00:47:31;32.97;;;22.60;;
41685;SDS011;27370;42.764;23.432;2022-09-01T00:49:57;29.65;;;23.35;;
41685;SDS011;27370;42.764;23.432;2022-09-01T00:52:36;29.35;;;22.80;;
41685;SDS011;27370;42.764;23.432;2022-09-01T00:55:09;27.42;;;22.90;;
41685;SDS011;27370;42.764;23.432;2022-09-01T00:57:43;27.35;;;22.98;;
41685;SDS011;27370;42.764;23.432;2022-09-01T01:00:13;30.63;;;23.90;;
41685;SDS011;27370;42.764;23.432;2022-09-01T01:02:45;32.78;;;23.98;;
41685;SDS011;27370;42.764;23.432;2022-09-01T01:05:12;33.28;;;24.08;;
41685;SDS011;27370;42.764;23.432;2022-09-01T01:07:39;28.45;;;24.02;;
41685;SDS011;27370;42.764;23.432;2022-09-01T01:12:37;29.35;;;23.83;;
41685;SDS011;27370;42.764;23.432;2022-09-01T01:15:05;31.85;;;24.13;;
41685;SDS011;27370;42.764;23.432;2022-09-01T01:17:33;27.80;;;22.20;;
41685;SDS011;27370;42.764;23.432;2022-09-01T01:19:59;30.15;;;23.23;;
41685;SDS011;27370;42.764;23.432;2022-09-01T01:22:44;26.30;;;21.23;;
41685;SDS011;27370;42.764;23.432;2022-09-01T01:25:41;26.17;;;21.65;;
41685;SDS011;27370;42.764;23.432;2022-09-01T01:30:36;33.40;;;24.35;;
41685;SDS011;27370;42.764;23.432;2022-09-01T01:33:04;26.70;;;22.00;;
41685;SDS011;27370;42.764;23.432;2022-09-01T01:35:30;29.35;;;21.83;;
41685;SDS011;27370;42.764;23.432;2022-09-01T01:37:58;26.88;;;22.20;;
41685;SDS011;27370;42.764;23.432;2022-09-01T01:40:26;26.35;;;22.42;;
41685;SDS011;27370;42.764;23.432;2022-09-01T01:42:53;25.20;;;21.70;;
41685;SDS011;27370;42.764;23.432;2022-09-01T01:45:20;27.35;;;22.05;;
41685;SDS011;27370;42.764;23.432;2022-09-01T01:47:48;25.92;;;20.85;;
41685;SDS011;27370;42.764;23.432;2022-09-01T01:50:25;31.00;;;24.25;;
41685;SDS011;27370;42.764;23.432;2022-09-01T01:52:57;35.30;;;25.92;;
41685;SDS011;27370;42.764;23.432;2022-09-01T01:55:26;111.13;;;27.15;;
41685;SDS011;27370;42.764;23.432;2022-09-01T01:57:57;151.50;;;29.25;;
41685;SDS011;27370;42.764;23.432;2022-09-01T02:00:28;132.15;;;29.60;;
41685;SDS011;27370;42.764;23.432;2022-09-01T02:03:00;186.90;;;30.10;;
41685;SDS011;27370;42.764;23.432;2022-09-01T02:05:29;71.10;;;27.45;;
41685;SDS011;27370;42.764;23.432;2022-09-01T02:08:00;69.90;;;27.27;;
41685;SDS011;27370;42.764;23.432;2022-09-01T02:10:29;117.18;;;27.40;;
41685;SDS011;27370;42.764;23.432;2022-09-01T02:13:01;100.18;;;25.20;;
41685;SDS011;27370;42.764;23.432;2022-09-01T02:15:29;88.60;;;25.25;;
41685;SDS011;27370;42.764;23.432;2022-09-01T02:17:59;134.40;;;27.70;;
41685;SDS011;27370;42.764;23.432;2022-09-01T02:20:25;90.90;;;27.80;;
41685;SDS011;27370;42.764;23.432;2022-09-01T02:22:54;46.92;;;29.55;;
41685;SDS011;27370;42.764;23.432;2022-09-01T02:25:20;58.30;;;30.70;;
41685;SDS011;27370;42.764;23.432;2022-09-01T02:27:48;130.38;;;29.95;;
41685;SDS011;27370;42.764;23.432;2022-09-01T02:30:19;144.15;;;31.90;;
41685;SDS011;27370;42.764;23.432;2022-09-01T02:32:45;140.55;;;30.40;;
41685;SDS011;27370;42.764;23.432;2022-09-01T02:35:11;205.82;;;33.63;;
41685;SDS011;27370;42.764;23.432;2022-09-01T02:37:38;231.60;;;36.22;;
41685;SDS011;27370;42.764;23.432;2022-09-01T02:40:05;250.77;;;35.17;;
41685;SDS011;27370;42.764;23.432;2022-09-01T02:42:35;253.20;;;37.88;;
41685;SDS011;27370;42.764;23.432;2022-09-01T02:45:05;189.95;;;36.67;;
41685;SDS011;27370;42.764;23.432;2022-09-01T02:47:39;102.85;;;33.92;;
41685;SDS011;27370;42.764;23.432;2022-09-01T02:50:09;124.55;;;34.28;;
41685;SDS011;27370;42.764;23.432;2022-09-01T02:52:42;100.93;;;36.28;;
41685;SDS011;27370;42.764;23.432;2022-09-01T02:55:08;144.10;;;38.03;;
41685;SDS011;27370;42.764;23.432;2022-09-01T02:57:33;106.80;;;37.47;;
41685;SDS011;27370;42.764;23.432;2022-09-01T03:00:00;82.82;;;38.45;;
41685;SDS011;27370;42.764;23.432;2022-09-01T03:02:29;68.38;;;37.80;;
41685;SDS011;27370;42.764;23.432;2022-09-01T03:04:55;59.00;;;36.70;;
41685;SDS011;27370;42.764;23.432;2022-09-01T03:07:21;54.55;;;35.55;;
41685;SDS011;27370;42.764;23.432;2022-09-01T03:09:48;96.45;;;39.25;;
41685;SDS011;27370;42.764;23.432;2022-09-01T03:12:14;103.93;;;39.35;;
41685;SDS011;27370;42.764;23.432;2022-09-01T03:14:40;70.45;;;37.67;;
41685;SDS011;27370;42.764;23.432;2022-09-01T03:17:05;100.00;;;41.08;;
41685;SDS011;27370;42.764;23.432;2022-09-01T03:19:31;162.32;;;47.20;;
41685;SDS011;27370;42.764;23.432;2022-09-01T03:22:08;117.50;;;45.05;;
41685;SDS011;27370;42.764;23.432;2022-09-01T03:24:35;154.07;;;46.38;;
41685;SDS011;27370;42.764;23.432;2022-09-01T03:27:00;263.73;;;54.95;;
41685;SDS011;27370;42.764;23.432;2022-09-01T03:29:26;105.43;;;44.08;;
41685;SDS011;27370;42.764;23.432;2022-09-01T03:31:52;322.00;;;56.08;;
41685;SDS011;27370;42.764;23.432;2022-09-01T03:34:18;82.45;;;40.05;;
41685;SDS011;27370;42.764;23.432;2022-09-01T03:36:49;79.85;;;38.70;;
41685;SDS011;27370;42.764;23.432;2022-09-01T03:39:18;88.88;;;38.67;;
41685;SDS011;27370;42.764;23.432;2022-09-01T03:41:44;67.30;;;37.70;;
41685;SDS011;27370;42.764;23.432;2022-09-01T03:44:10;417.10;;;44.28;;
41685;SDS011;27370;42.764;23.432;2022-09-01T03:46:38;100.13;;;35.17;;
41685;SDS011;27370;42.764;23.432;2022-09-01T03:49:04;52.40;;;33.75;;
41685;SDS011;27370;42.764;23.432;2022-09-01T03:51:36;52.33;;;33.40;;
41685;SDS011;27370;42.764;23.432;2022-09-01T03:54:03;57.13;;;34.78;;
41685;SDS011;27370;42.764;23.432;2022-09-01T03:56:29;49.72;;;33.78;;
41685;SDS011;27370;42.764;23.432;2022-09-01T03:58:55;47.83;;;33.63;;
41685;SDS011;27370;42.764;23.432;2022-09-01T04:01:27;84.45;;;35.60;;
41685;SDS011;27370;42.764;23.432;2022-09-01T04:03:59;80.82;;;35.10;;
41685;SDS011;27370;42.764;23.432;2022-09-01T04:06:29;250.85;;;38.45;;
41685;SDS011;27370;42.764;23.432;2022-09-01T04:08:55;112.15;;;33.22;;
41685;SDS011;27370;42.764;23.432;2022-09-01T04:11:27;258.50;;;40.65;;
41685;SDS011;27370;42.764;23.432;2022-09-01T04:13:53;293.80;;;42.67;;
41685;SDS011;27370;42.764;23.432;2022-09-01T04:16:26;320.80;;;43.33;;
41685;SDS011;27370;42.764;23.432;2022-09-01T04:19:12;262.13;;;40.53;;
41685;SDS011;27370;42.764;23.432;2022-09-01T04:21:50;240.80;;;38.15;;
41685;SDS011;27370;42.764;23.432;2022-09-01T04:24:22;182.88;;;37.28;;
41685;SDS011;27370;42.764;23.432;2022-09-01T04:26:50;116.35;;;35.90;;
41685;SDS011;27370;42.764;23.432;2022-09-01T04:29:17;66.05;;;33.60;;
41685;SDS011;27370;42.764;23.432;2022-09-01T04:31:48;268.95;;;42.75;;
41685;SDS011;27370;42.764;23.432;2022-09-01T04:36:44;176.88;;;37.90;;
41685;SDS011;27370;42.764;23.432;2022-09-01T04:39:11;263.98;;;41.60;;
41685;SDS011;27370;42.764;23.432;2022-09-01T04:41:40;236.48;;;38.75;;
41685;SDS011;27370;42.764;23.432;2022-09-01T04:44:10;221.55;;;39.92;;
41685;SDS011;27370;42.764;23.432;2022-09-01T04:46:40;229.50;;;41.47;;
41685;SDS011;27370;42.764;23.432;2022-09-01T04:49:10;190.85;;;38.13;;
41685;SDS011;27370;42.764;23.432;2022-09-01T04:51:41;114.55;;;37.90;;
41685;SDS011;27370;42.764;23.432;2022-09-01T04:54:09;102.43;;;34.65;;
41685;SDS011;27370;42.764;23.432;2022-09-01T04:56:41;97.53;;;30.88;;
41685;SDS011;27370;42.764;23.432;2022-09-01T04:59:14;101.68;;;30.58;;
41685;SDS011;27370;42.764;23.432;2022-09-01T05:01:45;131.45;;;31.38;;
41685;SDS011;27370;42.764;23.432;2022-09-01T05:04:15;95.18;;;32.60;;
41685;SDS011;27370;42.764;23.432;2022-09-01T05:06:47;106.15;;;33.75;;
41685;SDS011;27370;42.764;23.432;2022-09-01T05:12:12;99.28;;;30.95;;
41685;SDS011;27370;42.764;23.432;2022-09-01T05:14:43;119.55;;;33.70;;
41685;SDS011;27370;42.764;23.432;2022-09-01T05:17:13;75.07;;;32.60;;
41685;SDS011;27370;42.764;23.432;2022-09-01T05:19:40;62.25;;;33.80;;
41685;SDS011;27370;42.764;23.432;2022-09-01T05:22:08;70.88;;;33.92;;
41685;SDS011;27370;42.764;23.432;2022-09-01T05:24:39;82.78;;;34.38;;
41685;SDS011;27370;42.764;23.432;2022-09-01T05:27:05;60.15;;;31.80;;
41685;SDS011;27370;42.764;23.432;2022-09-01T05:29:36;80.85;;;33.17;;
41685;SDS011;27370;42.764;23.432;2022-09-01T05:32:04;51.90;;;31.80;;
41685;SDS011;27370;42.764;23.432;2022-09-01T05:34:35;54.50;;;34.50;;
41685;SDS011;27370;42.764;23.432;2022-09-01T05:37:03;67.88;;;32.10;;
41685;SDS011;27370;42.764;23.432;2022-09-01T05:39:30;64.28;;;32.50;;
41685;SDS011;27370;42.764;23.432;2022-09-01T05:41:57;46.05;;;32.22;;
41685;SDS011;27370;42.764;23.432;2022-09-01T05:44:23;79.45;;;31.40;;
41685;SDS011;27370;42.764;23.432;2022-09-01T05:46:51;51.03;;;32.78;;
41685;SDS011;27370;42.764;23.432;2022-09-01T05:49:18;41.28;;;30.27;;
41685;SDS011;27370;42.764;23.432;2022-09-01T05:51:47;41.40;;;27.70;;
41685;SDS011;27370;42.764;23.432;2022-09-01T05:54:17;40.58;;;29.70;;
41685;SDS011;27370;42.764;23.432;2022-09-01T05:56:47;46.47;;;30.50;;
41685;SDS011;27370;42.764;23.432;2022-09-01T05:59:18;48.13;;;31.40;;
41685;SDS011;27370;42.764;23.432;2022-09-01T06:01:45;48.28;;;32.13;;
41685;SDS011;27370;42.764;23.432;2022-09-01T06:04:12;47.85;;;32.28;;
41685;SDS011;27370;42.764;23.432;2022-09-01T06:06:40;47.83;;;32.30;;
41685;SDS011;27370;42.764;23.432;2022-09-01T06:09:13;43.67;;;31.05;;
41685;SDS011;27370;42.764;23.432;2022-09-01T06:11:43;44.53;;;32.53;;
41685;SDS011;27370;42.764;23.432;2022-09-01T06:16:40;48.70;;;31.10;;
41685;SDS011;27370;42.764;23.432;2022-09-01T06:19:06;45.55;;;31.02;;
41685;SDS011;27370;42.764;23.432;2022-09-01T06:21:34;53.95;;;31.90;;
41685;SDS011;27370;42.764;23.432;2022-09-01T06:24:00;45.70;;;29.17;;
41685;SDS011;27370;42.764;23.432;2022-09-01T06:26:27;43.00;;;30.00;;
41685;SDS011;27370;42.764;23.432;2022-09-01T06:29:01;49.22;;;31.38;;
41685;SDS011;27370;42.764;23.432;2022-09-01T06:31:31;45.78;;;30.55;;
41685;SDS011;27370;42.764;23.432;2022-09-01T06:34:05;45.25;;;29.50;;
41685;SDS011;27370;42.764;23.432;2022-09-01T06:36:36;46.55;;;28.88;;
41685;SDS011;27370;42.764;23.432;2022-09-01T06:39:06;40.47;;;29.08;;
41685;SDS011;27370;42.764;23.432;2022-09-01T06:41:33;38.55;;;28.65;;
41685;SDS011;27370;42.764;23.432;2022-09-01T06:44:02;37.72;;;28.50;;
41685;SDS011;27370;42.764;23.432;2022-09-01T06:46:28;38.03;;;28.33;;
41685;SDS011;27370;42.764;23.432;2022-09-01T06:48:56;35.65;;;28.27;;
41685;SDS011;27370;42.764;23.432;2022-09-01T06:51:24;37.75;;;28.33;;
41685;SDS011;27370;42.764;23.432;2022-09-01T06:53:54;35.83;;;28.60;;
41685;SDS011;27370;42.764;23.432;2022-09-01T06:56:21;37.55;;;29.45;;
41685;SDS011;27370;42.764;23.432;2022-09-01T06:58:51;36.97;;;28.20;;
41685;SDS011;27370;42.764;23.432;2022-09-01T07:01:18;34.28;;;27.80;;
41685;SDS011;27370;42.764;23.432;2022-09-01T07:06:29;35.03;;;27.48;;
41685;SDS011;27370;42.764;23.432;2022-09-01T07:09:14;38.88;;;28.80;;
41685;SDS011;27370;42.764;23.432;2022-09-01T07:11:41;34.75;;;27.23;;
41685;SDS011;27370;42.764;23.432;2022-09-01T07:14:07;33.72;;;26.40;;
41685;SDS011;27370;42.764;23.432;2022-09-01T07:16:34;32.90;;;27.15;;
41685;SDS011;27370;42.764;23.432;2022-09-01T07:19:05;32.03;;;27.00;;
41685;SDS011;27370;42.764;23.432;2022-09-01T07:24:11;31.05;;;26.90;;
41685;SDS011;27370;42.764;23.432;2022-09-01T07:26:49;32.28;;;27.35;;
41685;SDS011;27370;42.764;23.432;2022-09-01T07:29:16;34.20;;;27.90;;
41685;SDS011;27370;42.764;23.432;2022-09-01T07:31:44;34.40;;;27.52;;
41685;SDS011;27370;42.764;23.432;2022-09-01T07:34:11;33.17;;;29.15;;
41685;SDS011;27370;42.764;23.432;2022-09-01T07:36:39;34.85;;;28.63;;
41685;SDS011;27370;42.764;23.432;2022-09-01T07:39:06;37.55;;;28.65;;
41685;SDS011;27370;42.764;23.432;2022-09-01T07:41:32;32.25;;;26.70;;
41685;SDS011;27370;42.764;23.432;2022-09-01T07:44:24;34.17;;;26.63;;
41685;SDS011;27370;42.764;23.432;2022-09-01T07:47:09;31.90;;;26.08;;
41685;SDS011;27370;42.764;23.432;2022-09-01T07:49:36;30.40;;;26.60;;
41685;SDS011;27370;42.764;23.432;2022-09-01T07:52:03;28.38;;;25.30;;
41685;SDS011;27370;42.764;23.432;2022-09-01T07:54:29;32.38;;;26.15;;
41685;SDS011;27370;42.764;23.432;2022-09-01T07:56:56;29.90;;;25.00;;
41685;SDS011;27370;42.764;23.432;2022-09-01T07:59:22;28.23;;;23.90;;
41685;SDS011;27370;42.764;23.432;2022-09-01T08:01:53;29.08;;;23.10;;
41685;SDS011;27370;42.764;23.432;2022-09-01T08:04:19;31.17;;;23.77;;
41685;SDS011;27370;42.764;23.432;2022-09-01T08:06:47;29.73;;;23.95;;
41685;SDS011;27370;42.764;23.432;2022-09-01T08:09:14;28.63;;;24.58;;
41685;SDS011;27370;42.764;23.432;2022-09-01T08:11:39;27.60;;;22.52;;
41685;SDS011;27370;42.764;23.432;2022-09-01T08:14:05;28.30;;;23.38;;
41685;SDS011;27370;42.764;23.432;2022-09-01T08:16:32;28.13;;;22.88;;
41685;SDS011;27370;42.764;23.432;2022-09-01T08:18:59;27.25;;;24.17;;
41685;SDS011;27370;42.764;23.432;2022-09-01T08:21:28;34.80;;;23.80;;
41685;SDS011;27370;42.764;23.432;2022-09-01T08:23:57;28.10;;;22.27;;
41685;SDS011;27370;42.764;23.432;2022-09-01T08:26:23;28.05;;;22.63;;
41685;SDS011;27370;42.764;23.432;2022-09-01T08:28:50;27.73;;;22.95;;
41685;SDS011;27370;42.764;23.432;2022-09-01T08:31:18;25.65;;;21.73;;
41685;SDS011;27370;42.764;23.432;2022-09-01T08:33:46;25.75;;;21.45;;
41685;SDS011;27370;42.764;23.432;2022-09-01T08:36:14;22.45;;;18.00;;
41685;SDS011;27370;42.764;23.432;2022-09-01T08:38:41;24.30;;;19.23;;
41685;SDS011;27370;42.764;23.432;2022-09-01T08:41:17;25.98;;;18.73;;
41685;SDS011;27370;42.764;23.432;2022-09-01T08:44:07;20.35;;;16.70;;
41685;SDS011;27370;42.764;23.432;2022-09-01T08:46:40;21.77;;;17.67;;
41685;SDS011;27370;42.764;23.432;2022-09-01T08:49:15;25.30;;;19.55;;
41685;SDS011;27370;42.764;23.432;2022-09-01T08:55:13;21.80;;;17.00;;
41685;SDS011;27370;42.764;23.432;2022-09-01T08:57:46;18.77;;;14.93;;
41685;SDS011;27370;42.764;23.432;2022-09-01T09:00:19;19.15;;;15.77;;
41685;SDS011;27370;42.764;23.432;2022-09-01T09:16:46;15.07;;;11.68;;
41685;SDS011;27370;42.764;23.432;2022-09-01T09:19:20;18.65;;;11.23;;
41685;SDS011;27370;42.764;23.432;2022-09-01T09:21:46;15.50;;;11.07;;
41685;SDS011;27370;42.764;23.432;2022-09-01T09:29:54;13.75;;;9.82;;
41685;SDS011;27370;42.764;23.432;2022-09-01T09:32:47;17.42;;;11.50;;
41685;SDS011;27370;42.764;23.432;2022-09-01T09:35:35;16.17;;;10.88;;
41685;SDS011;27370;42.764;23.432;2022-09-01T09:41:00;16.40;;;11.15;;
41685;SDS011;27370;42.764;23.432;2022-09-01T09:43:31;15.75;;;9.50;;
41685;SDS011;27370;42.764;23.432;2022-09-01T09:48:45;16.55;;;10.23;;
41685;SDS011;27370;42.764;23.432;2022-09-01T09:51:15;17.63;;;13.70;;
41685;SDS011;27370;42.764;23.432;2022-09-01T09:53:44;18.42;;;13.32;;
41685;SDS011;27370;42.764;23.432;2022-09-01T09:56:19;17.38;;;11.40;;
41685;SDS011;27370;42.764;23.432;2022-09-01T09:58:51;14.15;;;10.18;;
41685;SDS011;27370;42.764;23.432;2022-09-01T10:03:51;16.20;;;10.27;;
41685;SDS011;27370;42.764;23.432;2022-09-01T10:06:30;16.20;;;10.68;;
41685;SDS011;27370;42.764;23.432;2022-09-01T10:08:56;14.75;;;9.73;;
41685;SDS011;27370;42.764;23.432;2022-09-01T10:11:30;14.52;;;9.60;;
41685;SDS011;27370;42.764;23.432;2022-09-01T10:14:04;16.63;;;9.85;;
41685;SDS011;27370;42.764;23.432;2022-09-01T10:16:31;13.85;;;8.77;;
41685;SDS011;27370;42.764;23.432;2022-09-01T10:19:03;14.57;;;9.15;;
41685;SDS011;27370;42.764;23.432;2022-09-01T10:21:38;13.15;;;9.32;;
41685;SDS011;27370;42.764;23.432;2022-09-01T10:24:12;13.18;;;7.70;;
41685;SDS011;27370;42.764;23.432;2022-09-01T10:26:39;13.52;;;7.88;;
41685;SDS011;27370;42.764;23.432;2022-09-01T10:29:12;12.68;;;7.97;;
41685;SDS011;27370;42.764;23.432;2022-09-01T10:31:41;11.85;;;8.30;;
41685;SDS011;27370;42.764;23.432;2022-09-01T10:34:09;13.07;;;8.02;;
41685;SDS011;27370;42.764;23.432;2022-09-01T10:36:39;13.57;;;8.57;;
41685;SDS011;27370;42.764;23.432;2022-09-01T10:39:09;15.00;;;8.13;;
41685;SDS011;27370;42.764;23.432;2022-09-01T10:44:26;9.95;;;7.15;;
41685;SDS011;27370;42.764;23.432;2022-09-01T10:51:57;12.52;;;6.93;;
41685;SDS011;27370;42.764;23.432;2022-09-01T10:54:57;10.18;;;6.65;;
41685;SDS011;27370;42.764;23.432;2022-09-01T10:57:27;12.73;;;6.63;;
41685;SDS011;27370;42.764;23.432;2022-09-01T10:59:54;9.93;;;6.20;;
41685;SDS011;27370;42.764;23.432;2022-09-01T11:10:56;10.30;;;6.47;;
41685;SDS011;27370;42.764;23.432;2022-09-01T11:15:56;11.55;;;7.80;;
41685;SDS011;27370;42.764;23.432;2022-09-01T11:27:03;12.13;;;8.13;;
41685;SDS011;27370;42.764;23.432;2022-09-01T11:32:20;10.73;;;7.53;;
41685;SDS011;27370;42.764;23.432;2022-09-01T11:34:50;12.73;;;7.60;;
41685;SDS011;27370;42.764;23.432;2022-09-01T11:37:21;11.00;;;7.20;;
41685;SDS011;27370;42.764;23.432;2022-09-01T11:39:50;12.55;;;7.40;;
41685;SDS011;27370;42.764;23.432;2022-09-01T11:47:59;11.45;;;7.60;;
41685;SDS011;27370;42.764;23.432;2022-09-01T11:50:31;12.05;;;7.63;;
41685;SDS011;27370;42.764;23.432;2022-09-01T11:53:09;11.20;;;6.90;;
41685;SDS011;27370;42.764;23.432;2022-09-01T11:55:43;11.60;;;7.53;;
41685;SDS011;27370;42.764;23.432;2022-09-01T11:58:27;10.18;;;7.13;;
41685;SDS011;27370;42.764;23.432;2022-09-01T12:03:36;11.85;;;7.18;;
41685;SDS011;27370;42.764;23.432;2022-09-01T12:06:02;13.00;;;7.43;;
41685;SDS011;27370;42.764;23.432;2022-09-01T12:08:31;12.02;;;6.25;;
41685;SDS011;27370;42.764;23.432;2022-09-01T12:11:06;11.80;;;6.47;;
41685;SDS011;27370;42.764;23.432;2022-09-01T12:13:35;10.65;;;7.13;;
41685;SDS011;27370;42.764;23.432;2022-09-01T12:16:03;11.65;;;7.00;;
41685;SDS011;27370;42.764;23.432;2022-09-01T12:21:00;11.68;;;6.97;;
41685;SDS011;27370;42.764;23.432;2022-09-01T12:25:59;11.35;;;7.03;;
41685;SDS011;27370;42.764;23.432;2022-09-01T12:28:28;10.30;;;6.90;;
41685;SDS011;27370;42.764;23.432;2022-09-01T12:30:55;11.63;;;7.00;;
41685;SDS011;27370;42.764;23.432;2022-09-01T12:33:22;11.52;;;6.85;;
41685;SDS011;27370;42.764;23.432;2022-09-01T12:35:48;11.38;;;7.15;;
41685;SDS011;27370;42.764;23.432;2022-09-01T12:38:15;11.55;;;7.10;;
41685;SDS011;27370;42.764;23.432;2022-09-01T12:40:43;12.13;;;6.75;;
41685;SDS011;27370;42.764;23.432;2022-09-01T12:43:10;12.13;;;7.22;;
41685;SDS011;27370;42.764;23.432;2022-09-01T12:45:50;12.90;;;7.40;;
41685;SDS011;27370;42.764;23.432;2022-09-01T12:48:32;10.80;;;7.28;;
41685;SDS011;27370;42.764;23.432;2022-09-01T12:51:05;11.35;;;7.20;;
41685;SDS011;27370;42.764;23.432;2022-09-01T12:53:48;13.25;;;7.13;;
41685;SDS011;27370;42.764;23.432;2022-09-01T12:56:20;12.15;;;7.28;;
41685;SDS011;27370;42.764;23.432;2022-09-01T12:59:02;12.32;;;6.82;;
41685;SDS011;27370;42.764;23.432;2022-09-01T13:01:30;11.82;;;6.72;;
41685;SDS011;27370;42.764;23.432;2022-09-01T13:04:14;11.87;;;7.03;;
41685;SDS011;27370;42.764;23.432;2022-09-01T13:06:49;11.50;;;7.03;;
41685;SDS011;27370;42.764;23.432;2022-09-01T13:09:16;10.15;;;6.68;;
41685;SDS011;27370;42.764;23.432;2022-09-01T13:11:42;11.45;;;6.63;;
41685;SDS011;27370;42.764;23.432;2022-09-01T13:14:12;10.90;;;6.78;;
41685;SDS011;27370;42.764;23.432;2022-09-01T13:16:38;12.05;;;6.65;;
41685;SDS011;27370;42.764;23.432;2022-09-01T13:19:05;11.52;;;6.55;;
41685;SDS011;27370;42.764;23.432;2022-09-01T13:21:32;12.02;;;6.50;;
41685;SDS011;27370;42.764;23.432;2022-09-01T13:23:59;10.40;;;6.80;;
41685;SDS011;27370;42.764;23.432;2022-09-01T13:26:26;10.85;;;6.80;;
41685;SDS011;27370;42.764;23.432;2022-09-01T13:28:55;12.40;;;6.80;;
41685;SDS011;27370;42.764;23.432;2022-09-01T13:31:21;15.88;;;7.03;;
41685;SDS011;27370;42.764;23.432;2022-09-01T13:33:47;11.65;;;7.07;;
41685;SDS011;27370;42.764;23.432;2022-09-01T13:36:13;10.15;;;6.18;;
41685;SDS011;27370;42.764;23.432;2022-09-01T13:38:39;12.10;;;7.07;;
41685;SDS011;27370;42.764;23.432;2022-09-01T13:41:04;13.23;;;7.30;;
41685;SDS011;27370;42.764;23.432;2022-09-01T13:43:32;10.75;;;6.97;;
41685;SDS011;27370;42.764;23.432;2022-09-01T13:45:58;13.18;;;7.57;;
41685;SDS011;27370;42.764;23.432;2022-09-01T13:48:25;13.77;;;6.88;;
41685;SDS011;27370;42.764;23.432;2022-09-01T13:50:52;10.60;;;6.78;;
41685;SDS011;27370;42.764;23.432;2022-09-01T13:53:18;10.63;;;6.82;;
41685;SDS011;27370;42.764;23.432;2022-09-01T13:55:44;10.10;;;6.63;;
41685;SDS011;27370;42.764;23.432;2022-09-01T13:58:09;13.63;;;7.15;;
41685;SDS011;27370;42.764;23.432;2022-09-01T14:00:37;11.98;;;6.90;;
41685;SDS011;27370;42.764;23.432;2022-09-01T14:03:05;12.98;;;6.45;;
41685;SDS011;27370;42.764;23.432;2022-09-01T14:05:51;11.57;;;7.13;;
41685;SDS011;27370;42.764;23.432;2022-09-01T14:08:19;14.40;;;7.03;;
41685;SDS011;27370;42.764;23.432;2022-09-01T14:13:15;15.07;;;6.40;;
41685;SDS011;27370;42.764;23.432;2022-09-01T14:15:41;12.32;;;6.85;;
41685;SDS011;27370;42.764;23.432;2022-09-01T14:18:07;11.05;;;6.20;;
41685;SDS011;27370;42.764;23.432;2022-09-01T14:20:34;12.32;;;7.07;;
41685;SDS011;27370;42.764;23.432;2022-09-01T14:23:04;13.70;;;6.65;;
41685;SDS011;27370;42.764;23.432;2022-09-01T14:25:31;13.05;;;6.63;;
41685;SDS011;27370;42.764;23.432;2022-09-01T14:27:58;11.60;;;7.03;;
41685;SDS011;27370;42.764;23.432;2022-09-01T14:30:25;12.57;;;6.63;;
41685;SDS011;27370;42.764;23.432;2022-09-01T14:32:51;11.88;;;6.63;;
41685;SDS011;27370;42.764;23.432;2022-09-01T14:35:18;10.82;;;6.70;;
41685;SDS011;27370;42.764;23.432;2022-09-01T14:37:48;12.25;;;7.00;;
41685;SDS011;27370;42.764;23.432;2022-09-01T14:40:15;10.85;;;6.57;;
41685;SDS011;27370;42.764;23.432;2022-09-01T14:42:42;12.77;;;7.13;;
41685;SDS011;27370;42.764;23.432;2022-09-01T14:45:17;13.82;;;7.53;;
41685;SDS011;27370;42.764;23.432;2022-09-01T14:47:48;11.00;;;7.45;;
41685;SDS011;27370;42.764;23.432;2022-09-01T14:50:15;14.52;;;7.65;;
41685;SDS011;27370;42.764;23.432;2022-09-01T14:52:41;15.15;;;7.85;;
41685;SDS011;27370;42.764;23.432;2022-09-01T14:55:07;13.38;;;8.13;;
41685;SDS011;27370;42.764;23.432;2022-09-01T14:57:33;15.77;;;8.38;;
41685;SDS011;27370;42.764;23.432;2022-09-01T14:59:58;15.02;;;8.50;;
41685;SDS011;27370;42.764;23.432;2022-09-01T15:02:24;13.45;;;8.63;;
41685;SDS011;27370;42.764;23.432;2022-09-01T15:04:52;11.07;;;7.80;;
41685;SDS011;27370;42.764;23.432;2022-09-01T15:07:17;13.10;;;9.05;;
41685;SDS011;27370;42.764;23.432;2022-09-01T15:09:43;15.18;;;9.00;;
41685;SDS011;27370;42.764;23.432;2022-09-01T15:12:08;13.77;;;8.60;;
41685;SDS011;27370;42.764;23.432;2022-09-01T15:14:34;16.42;;;8.70;;
41685;SDS011;27370;42.764;23.432;2022-09-01T15:17:01;14.77;;;8.65;;
41685;SDS011;27370;42.764;23.432;2022-09-01T15:19:26;16.02;;;9.23;;
41685;SDS011;27370;42.764;23.432;2022-09-01T15:21:52;12.40;;;7.60;;
41685;SDS011;27370;42.764;23.432;2022-09-01T15:24:17;15.93;;;8.70;;
41685;SDS011;27370;42.764;23.432;2022-09-01T15:26:43;13.75;;;8.63;;
41685;SDS011;27370;42.764;23.432;2022-09-01T15:29:10;17.63;;;9.05;;
41685;SDS011;27370;42.764;23.432;2022-09-01T15:31:37;13.23;;;8.00;;
41685;SDS011;27370;42.764;23.432;2022-09-01T15:34:03;16.85;;;8.85;;
41685;SDS011;27370;42.764;23.432;2022-09-01T15:36:30;16.23;;;9.15;;
41685;SDS011;27370;42.764;23.432;2022-09-01T15:38:58;13.00;;;8.65;;
41685;SDS011;27370;42.764;23.432;2022-09-01T15:41:28;18.10;;;8.75;;
41685;SDS011;27370;42.764;23.432;2022-09-01T15:43:56;16.20;;;9.23;;
41685;SDS011;27370;42.764;23.432;2022-09-01T15:46:22;13.68;;;8.73;;
41685;SDS011;27370;42.764;23.432;2022-09-01T15:48:56;17.35;;;8.68;;
41685;SDS011;27370;42.764;23.432;2022-09-01T15:51:27;19.25;;;9.07;;
41685;SDS011;27370;42.764;23.432;2022-09-01T15:54:01;15.70;;;9.13;;
41685;SDS011;27370;42.764;23.432;2022-09-01T15:56:32;15.15;;;8.05;;
41685;SDS011;27370;42.764;23.432;2022-09-01T15:58:58;15.20;;;8.57;;